createdAt,value
2017-10-01T00:00:21.352Z,16.22
2017-10-01T00:00:49.445Z,16.22
2017-10-01T00:01:17.482Z,16.33
2017-10-01T00:01:45.536Z,16.3
2017-10-01T00:02:13.583Z,16.32
2017-10-01T00:02:41.768Z,16.33
2017-10-01T00:03:09.806Z,16.3
2017-10-01T00:03:37.943Z,16.29
2017-10-01T00:04:05.944Z,16.29
2017-10-01T00:04:33.906Z,16.36
2017-10-01T00:05:01.878Z,16.33
2017-10-01T00:05:29.840Z,16.39
2017-10-01T00:05:57.983Z,16.37
2017-10-01T00:06:26.231Z,16.36
2017-10-01T00:06:54.379Z,16.37
2017-10-01T00:07:22.377Z,16.34
2017-10-01T00:07:50.526Z,16.34
2017-10-01T00:08:18.604Z,16.32
2017-10-01T00:08:46.802Z,16.34
2017-10-01T00:09:14.880Z,16.3
2017-10-01T00:09:42.953Z,16.27
2017-10-01T00:10:11.026Z,16.3
2017-10-01T00:10:38.975Z,16.37
2017-10-01T00:11:07.004Z,16.32
2017-10-01T00:11:35.249Z,16.34
2017-10-01T00:12:03.436Z,16.32
2017-10-01T00:12:31.601Z,16.36
2017-10-01T00:12:59.665Z,16.34
2017-10-01T00:13:27.672Z,16.36
2017-10-01T00:13:55.815Z,16.4
2017-10-01T00:14:23.931Z,16.44
2017-10-01T00:14:52.055Z,16.36
2017-10-01T00:15:20.194Z,16.4
2017-10-01T00:15:47.951Z,16.44
2017-10-01T00:16:15.878Z,16.42
2017-10-01T00:16:43.985Z,16.42
2017-10-01T00:17:11.965Z,16.39
2017-10-01T00:17:40.118Z,16.49
2017-10-01T00:18:08.060Z,16.45
2017-10-01T00:18:36.049Z,16.51
2017-10-01T00:19:04.121Z,16.54
2017-10-01T00:19:32.207Z,16.52
2017-10-01T00:20:00.234Z,16.44
2017-10-01T00:20:28.352Z,16.49
2017-10-01T00:20:56.384Z,16.52
2017-10-01T00:21:24.536Z,16.42
2017-10-01T00:21:52.715Z,16.4
2017-10-01T00:22:20.591Z,16.4
2017-10-01T00:22:48.434Z,16.42
2017-10-01T00:23:16.458Z,16.37
2017-10-01T00:23:44.614Z,16.37
2017-10-01T00:24:12.770Z,16.36
2017-10-01T00:24:40.730Z,16.36
2017-10-01T00:25:08.782Z,16.45
2017-10-01T00:25:36.740Z,16.36
2017-10-01T00:26:04.709Z,16.36
2017-10-01T00:26:32.960Z,16.36
2017-10-01T00:27:00.989Z,16.37
2017-10-01T00:27:29.180Z,16.4
2017-10-01T00:27:57.342Z,16.32
2017-10-01T00:28:25.466Z,16.36
2017-10-01T00:28:53.519Z,16.32
2017-10-01T00:29:21.667Z,16.27
2017-10-01T00:29:49.806Z,16.32
2017-10-01T00:30:17.905Z,16.29
2017-10-01T00:30:45.823Z,16.29
2017-10-01T00:31:13.824Z,16.29
2017-10-01T00:31:41.905Z,16.34
2017-10-01T00:32:09.922Z,16.33
2017-10-01T00:32:37.995Z,16.34
2017-10-01T00:33:05.909Z,16.3
2017-10-01T00:33:33.987Z,16.32
2017-10-01T00:34:02.036Z,16.36
2017-10-01T00:34:29.959Z,16.32
2017-10-01T00:34:57.782Z,16.4
2017-10-01T00:35:25.834Z,16.33
2017-10-01T00:35:53.670Z,16.36
2017-10-01T00:36:21.821Z,16.3
2017-10-01T00:36:49.981Z,16.37
2017-10-01T00:37:17.844Z,16.34
2017-10-01T00:37:45.683Z,16.39
2017-10-01T00:38:13.737Z,16.33
2017-10-01T00:38:41.769Z,16.34
2017-10-01T00:39:09.746Z,16.36
2017-10-01T00:39:37.931Z,16.3
2017-10-01T00:40:05.951Z,16.32
2017-10-01T00:40:33.896Z,16.32
2017-10-01T00:41:01.912Z,16.36
2017-10-01T00:41:30.010Z,16.34
2017-10-01T00:41:58.179Z,16.32
2017-10-01T00:42:26.127Z,16.34
2017-10-01T00:42:54.324Z,16.34
2017-10-01T00:43:22.370Z,16.34
2017-10-01T00:43:50.351Z,16.33
2017-10-01T00:44:18.502Z,16.3
2017-10-01T00:44:46.521Z,16.27
2017-10-01T00:45:14.489Z,16.32
2017-10-01T00:45:42.564Z,16.33
2017-10-01T00:46:10.497Z,16.37
2017-10-01T00:46:38.740Z,16.29
2017-10-01T00:47:06.572Z,16.26
2017-10-01T00:47:34.574Z,16.4
2017-10-01T00:48:02.580Z,16.34
2017-10-01T00:48:30.526Z,16.34
2017-10-01T00:48:58.522Z,16.3
2017-10-01T00:49:26.700Z,16.34
2017-10-01T00:49:54.832Z,16.3
2017-10-01T00:50:22.884Z,16.33
2017-10-01T00:50:51.011Z,16.27
2017-10-01T00:51:19.112Z,16.25
2017-10-01T00:51:47.228Z,16.29
2017-10-01T00:52:15.173Z,16.26
2017-10-01T00:52:43.222Z,16.27
2017-10-01T00:53:11.195Z,16.3
2017-10-01T00:53:39.133Z,16.33
2017-10-01T00:54:07.068Z,16.32
2017-10-01T00:54:35.243Z,16.3
2017-10-01T00:55:03.153Z,16.26
2017-10-01T00:55:31.188Z,16.29
2017-10-01T00:55:59.158Z,16.3
2017-10-01T00:56:27.127Z,16.3
2017-10-01T00:56:55.555Z,16.36
2017-10-01T00:57:23.515Z,16.37
2017-10-01T00:57:51.367Z,16.34
2017-10-01T00:58:19.509Z,16.39
2017-10-01T00:58:47.646Z,16.32
2017-10-01T00:59:15.897Z,16.36
2017-10-01T00:59:43.927Z,16.36
2017-10-01T01:00:12.009Z,16.32
2017-10-01T01:00:39.973Z,16.34
2017-10-01T01:01:08.004Z,16.36
2017-10-01T01:01:35.888Z,16.3
2017-10-01T01:02:03.977Z,16.36
2017-10-01T01:02:32.064Z,16.33
2017-10-01T01:03:00.101Z,16.33
2017-10-01T01:03:28.202Z,16.34
2017-10-01T01:03:56.148Z,16.39
2017-10-01T01:04:23.979Z,16.33
2017-10-01T01:04:52.093Z,16.36
2017-10-01T01:05:20.119Z,16.34
2017-10-01T01:05:48.201Z,16.3
2017-10-01T01:06:16.330Z,16.34
2017-10-01T01:06:44.468Z,16.36
2017-10-01T01:07:12.518Z,16.36
2017-10-01T01:07:40.566Z,16.37
2017-10-01T01:08:08.630Z,16.32
2017-10-01T01:08:36.575Z,16.27
2017-10-01T01:09:04.613Z,16.34
2017-10-01T01:09:32.575Z,16.34
2017-10-01T01:10:00.614Z,16.32
2017-10-01T01:10:28.797Z,16.37
2017-10-01T01:10:56.730Z,16.29
2017-10-01T01:11:24.701Z,16.32
2017-10-01T01:11:52.745Z,16.32
2017-10-01T01:12:20.713Z,16.34
2017-10-01T01:12:48.778Z,16.32
2017-10-01T01:13:16.757Z,16.34
2017-10-01T01:13:44.926Z,16.36
2017-10-01T01:14:12.787Z,16.39
2017-10-01T01:14:40.948Z,16.37
2017-10-01T01:15:09.098Z,16.39
2017-10-01T01:15:37.240Z,16.33
2017-10-01T01:16:05.309Z,16.36
2017-10-01T01:16:33.348Z,16.45
2017-10-01T01:17:01.478Z,16.39
2017-10-01T01:17:29.573Z,16.37
2017-10-01T01:17:57.705Z,16.33
2017-10-01T01:18:25.795Z,16.4
2017-10-01T01:18:53.959Z,16.37
2017-10-01T01:19:21.923Z,16.37
2017-10-01T01:19:49.781Z,16.36
2017-10-01T01:20:17.855Z,16.33
2017-10-01T01:20:46.047Z,16.34
2017-10-01T01:21:14.093Z,16.37
2017-10-01T01:21:42.252Z,16.34
2017-10-01T01:22:10.385Z,16.36
2017-10-01T01:22:38.429Z,16.33
2017-10-01T01:23:06.468Z,16.37
2017-10-01T01:23:34.608Z,16.37
2017-10-01T01:24:02.428Z,16.34
2017-10-01T01:24:30.469Z,16.34
2017-10-01T01:24:58.591Z,16.37
2017-10-01T01:25:26.512Z,16.36
2017-10-01T01:25:54.532Z,16.36
2017-10-01T01:26:22.575Z,16.36
2017-10-01T01:26:50.675Z,16.39
2017-10-01T01:27:18.838Z,16.4
2017-10-01T01:27:46.917Z,16.33
2017-10-01T01:28:15.107Z,16.36
2017-10-01T01:28:42.958Z,16.39
2017-10-01T01:29:11.000Z,16.4
2017-10-01T01:29:39.046Z,16.39
2017-10-01T01:30:07.193Z,16.39
2017-10-01T01:30:35.284Z,16.37
2017-10-01T01:31:03.217Z,16.34
2017-10-01T01:31:31.385Z,16.37
2017-10-01T01:31:59.429Z,16.39
2017-10-01T01:32:27.707Z,16.37
2017-10-01T01:32:55.751Z,16.4
2017-10-01T01:33:23.854Z,16.39
2017-10-01T01:33:51.803Z,16.39
2017-10-01T01:34:19.807Z,16.39
2017-10-01T01:34:47.781Z,16.37
2017-10-01T01:35:15.994Z,16.37
2017-10-01T01:35:44.069Z,16.3
2017-10-01T01:36:12.126Z,16.34
2017-10-01T01:36:40.067Z,16.36
2017-10-01T01:37:08.111Z,16.37
2017-10-01T01:37:36.152Z,16.37
2017-10-01T01:38:04.219Z,16.39
2017-10-01T01:38:32.234Z,16.47
2017-10-01T01:39:00.075Z,16.37
2017-10-01T01:39:28.005Z,16.45
2017-10-01T01:39:55.917Z,16.39
2017-10-01T01:40:23.682Z,16.37
2017-10-01T01:40:51.736Z,16.36
2017-10-01T01:41:19.793Z,16.42
2017-10-01T01:41:47.952Z,16.42
2017-10-01T01:42:16.012Z,16.39
2017-10-01T01:42:44.076Z,16.45
2017-10-01T01:43:12.125Z,16.34
2017-10-01T01:43:40.313Z,16.45
2017-10-01T01:44:08.464Z,16.39
2017-10-01T01:44:36.259Z,16.4
2017-10-01T01:45:04.351Z,16.36
2017-10-01T01:45:32.421Z,16.34
2017-10-01T01:46:00.582Z,16.39
2017-10-01T01:46:28.653Z,16.42
2017-10-01T01:46:56.698Z,16.39
2017-10-01T01:47:24.889Z,16.36
2017-10-01T01:47:52.946Z,16.39
2017-10-01T01:48:21.128Z,16.39
2017-10-01T01:48:49.042Z,16.39
2017-10-01T01:49:17.252Z,16.37
2017-10-01T01:49:45.183Z,16.4
2017-10-01T01:50:13.044Z,16.44
2017-10-01T01:50:40.970Z,16.44
2017-10-01T01:51:08.817Z,16.39
2017-10-01T01:51:36.993Z,16.39
2017-10-01T01:52:05.038Z,16.34
2017-10-01T01:52:33.179Z,16.37
2017-10-01T01:53:01.337Z,16.39
2017-10-01T01:53:29.392Z,16.37
2017-10-01T01:53:57.599Z,16.33
2017-10-01T01:54:25.693Z,16.37
2017-10-01T01:54:53.732Z,16.36
2017-10-01T01:55:21.788Z,16.44
2017-10-01T01:55:49.830Z,16.37
2017-10-01T01:56:17.858Z,16.36
2017-10-01T01:56:45.927Z,16.36
2017-10-01T01:57:13.989Z,16.33
2017-10-01T01:57:42.214Z,16.36
2017-10-01T01:58:10.180Z,16.36
2017-10-01T01:58:38.328Z,16.37
2017-10-01T01:59:06.508Z,16.36
2017-10-01T01:59:34.646Z,16.37
2017-10-01T02:00:02.799Z,16.34
2017-10-01T02:00:30.920Z,16.34
2017-10-01T02:00:58.958Z,16.39
2017-10-01T02:01:27.128Z,16.34
2017-10-01T02:01:55.295Z,16.34
2017-10-01T02:02:23.514Z,16.37
2017-10-01T02:02:51.503Z,16.36
2017-10-01T02:03:19.675Z,16.37
2017-10-01T02:03:47.619Z,16.37
2017-10-01T02:04:15.539Z,16.39
2017-10-01T02:04:43.725Z,16.33
2017-10-01T02:05:11.693Z,16.34
2017-10-01T02:05:39.539Z,16.32
2017-10-01T02:06:07.612Z,16.33
2017-10-01T02:06:35.619Z,16.32
2017-10-01T02:07:03.713Z,16.34
2017-10-01T02:07:31.758Z,16.27
2017-10-01T02:07:59.906Z,16.33
2017-10-01T02:08:27.971Z,16.3
2017-10-01T02:08:56.124Z,16.34
2017-10-01T02:09:24.053Z,16.32
2017-10-01T02:09:52.206Z,16.3
2017-10-01T02:10:20.256Z,16.25
2017-10-01T02:10:48.437Z,16.33
2017-10-01T02:11:16.451Z,16.3
2017-10-01T02:11:44.571Z,16.3
2017-10-01T02:12:12.648Z,16.21
2017-10-01T02:12:40.835Z,16.26
2017-10-01T02:13:08.882Z,16.26
2017-10-01T02:13:36.935Z,16.16
2017-10-01T02:14:05.057Z,16.27
2017-10-01T02:14:33.257Z,16.25
2017-10-01T02:15:01.465Z,16.27
2017-10-01T02:15:29.522Z,16.22
2017-10-01T02:15:57.605Z,16.18
2017-10-01T02:16:25.504Z,16.21
2017-10-01T02:16:53.464Z,16.21
2017-10-01T02:17:21.497Z,16.18
2017-10-01T02:17:49.750Z,16.16
2017-10-01T02:18:17.785Z,16.13
2017-10-01T02:18:45.730Z,16.14
2017-10-01T02:19:13.703Z,16.14
2017-10-01T02:19:41.756Z,16.14
2017-10-01T02:20:09.845Z,16.14
2017-10-01T02:20:37.930Z,16.11
2017-10-01T02:21:06.080Z,16.1
2017-10-01T02:21:34.241Z,16.11
2017-10-01T02:22:02.411Z,16.11
2017-10-01T02:22:30.461Z,16.14
2017-10-01T02:22:58.711Z,16.13
2017-10-01T02:23:26.878Z,16.16
2017-10-01T02:23:54.937Z,16.1
2017-10-01T02:24:23.011Z,16.16
2017-10-01T02:24:51.071Z,16.1
2017-10-01T02:25:19.122Z,16.16
2017-10-01T02:25:47.256Z,16.13
2017-10-01T02:26:15.323Z,16.11
2017-10-01T02:26:43.269Z,16.11
2017-10-01T02:27:11.209Z,16.13
2017-10-01T02:27:39.168Z,16.1
2017-10-01T02:28:07.323Z,16.16
2017-10-01T02:28:35.379Z,16.13
2017-10-01T02:29:03.342Z,16.16
2017-10-01T02:29:31.288Z,16.18
2017-10-01T02:29:59.366Z,16.1
2017-10-01T02:30:27.433Z,16.16
2017-10-01T02:30:55.556Z,16.11
2017-10-01T02:31:23.732Z,16.16
2017-10-01T02:31:51.857Z,16.11
2017-10-01T02:32:20.057Z,16.14
2017-10-01T02:32:48.385Z,16.14
2017-10-01T02:33:16.514Z,16.16
2017-10-01T02:33:44.251Z,16.13
2017-10-01T02:34:12.220Z,16.13
2017-10-01T02:34:40.283Z,16.17
2017-10-01T02:35:08.244Z,16.16
2017-10-01T02:35:36.442Z,16.1
2017-10-01T02:36:04.490Z,16.1
2017-10-01T02:36:32.461Z,16.16
2017-10-01T02:37:00.569Z,16.11
2017-10-01T02:37:28.549Z,16.1
2017-10-01T02:37:56.700Z,16.14
2017-10-01T02:38:24.654Z,16.11
2017-10-01T02:38:52.514Z,16.13
2017-10-01T02:39:20.415Z,16.1
2017-10-01T02:39:48.556Z,16.11
2017-10-01T02:40:16.719Z,16.14
2017-10-01T02:40:44.733Z,16.14
2017-10-01T02:41:12.593Z,16.08
2017-10-01T02:41:40.659Z,16.11
2017-10-01T02:42:08.704Z,16.16
2017-10-01T02:42:36.773Z,16.14
2017-10-01T02:43:04.958Z,16.1
2017-10-01T02:43:33.069Z,16.11
2017-10-01T02:44:01.035Z,16.11
2017-10-01T02:44:28.967Z,16.13
2017-10-01T02:44:56.890Z,16.16
2017-10-01T02:45:24.954Z,16.16
2017-10-01T02:45:53.118Z,16.14
2017-10-01T02:46:21.131Z,16.21
2017-10-01T02:46:49.196Z,16.07
2017-10-01T02:47:17.167Z,16.04
2017-10-01T02:47:45.270Z,16.14
2017-10-01T02:48:13.369Z,16.06
2017-10-01T02:48:41.427Z,16.17
2017-10-01T02:49:09.393Z,16.08
2017-10-01T02:49:37.556Z,16.07
2017-10-01T02:50:05.505Z,16.1
2017-10-01T02:50:33.663Z,16
2017-10-01T02:51:01.781Z,16.04
2017-10-01T02:51:29.890Z,16.1
2017-10-01T02:51:58.003Z,16.1
2017-10-01T02:52:26.065Z,16.04
2017-10-01T02:52:54.159Z,16.04
2017-10-01T02:53:22.324Z,16.08
2017-10-01T02:53:50.045Z,16.1
2017-10-01T02:54:18.084Z,16.08
2017-10-01T02:54:46.169Z,16.07
2017-10-01T02:55:14.102Z,16.07
2017-10-01T02:55:42.241Z,16.14
2017-10-01T02:56:10.266Z,16.07
2017-10-01T02:56:38.306Z,16.06
2017-10-01T02:57:06.248Z,16.02
2017-10-01T02:57:34.412Z,15.99
2017-10-01T02:58:02.587Z,16.06
2017-10-01T02:58:30.784Z,16.04
2017-10-01T02:58:58.751Z,16.02
2017-10-01T02:59:26.712Z,15.98
2017-10-01T02:59:54.732Z,16.04
2017-10-01T03:00:22.886Z,16.04
2017-10-01T03:00:50.955Z,16.02
2017-10-01T03:01:18.900Z,16.07
2017-10-01T03:01:47.093Z,16.04
2017-10-01T03:02:15.270Z,16.06
2017-10-01T03:02:43.417Z,16.02
2017-10-01T03:03:11.483Z,16.04
2017-10-01T03:03:39.503Z,16
2017-10-01T03:04:07.614Z,16
2017-10-01T03:04:35.652Z,16.04
2017-10-01T03:05:03.666Z,16.02
2017-10-01T03:05:31.856Z,16
2017-10-01T03:06:00.041Z,16
2017-10-01T03:06:27.944Z,15.98
2017-10-01T03:06:56.013Z,16.07
2017-10-01T03:07:23.981Z,16.13
2017-10-01T03:07:52.068Z,16.02
2017-10-01T03:08:20.211Z,16
2017-10-01T03:08:48.252Z,16.07
2017-10-01T03:09:16.262Z,16.06
2017-10-01T03:09:44.289Z,15.99
2017-10-01T03:10:12.249Z,16.06
2017-10-01T03:10:40.297Z,16.1
2017-10-01T03:11:08.437Z,16.07
2017-10-01T03:11:36.594Z,16.1
2017-10-01T03:12:04.597Z,16.04
2017-10-01T03:12:32.681Z,16
2017-10-01T03:13:00.707Z,16
2017-10-01T03:13:28.738Z,15.95
2017-10-01T03:13:56.691Z,16.1
2017-10-01T03:14:24.726Z,16.06
2017-10-01T03:14:52.703Z,16.04
2017-10-01T03:15:20.856Z,16.06
2017-10-01T03:15:48.865Z,16.1
2017-10-01T03:16:16.845Z,16.1
2017-10-01T03:16:44.897Z,16.08
2017-10-01T03:17:12.867Z,16.1
2017-10-01T03:17:41.039Z,16.08
2017-10-01T03:18:09.203Z,16.08
2017-10-01T03:18:37.343Z,16.06
2017-10-01T03:19:05.369Z,16.08
2017-10-01T03:19:33.330Z,16.11
2017-10-01T03:20:01.364Z,16.08
2017-10-01T03:20:29.177Z,16.08
2017-10-01T03:20:57.264Z,16.08
2017-10-01T03:21:25.336Z,15.98
2017-10-01T03:21:53.273Z,16.08
2017-10-01T03:22:21.414Z,16.06
2017-10-01T03:22:49.557Z,16.06
2017-10-01T03:23:17.423Z,16.06
2017-10-01T03:23:45.359Z,16.13
2017-10-01T03:24:13.418Z,16.07
2017-10-01T03:24:41.184Z,15.98
2017-10-01T03:25:09.233Z,16.1
2017-10-01T03:25:37.166Z,16.06
2017-10-01T03:26:05.227Z,16.02
2017-10-01T03:26:33.382Z,16.08
2017-10-01T03:27:01.213Z,15.91
2017-10-01T03:27:29.173Z,15.98
2017-10-01T03:27:57.125Z,15.99
2017-10-01T03:28:25.300Z,16.02
2017-10-01T03:28:53.436Z,16.02
2017-10-01T03:29:21.621Z,16.02
2017-10-01T03:29:49.694Z,16
2017-10-01T03:30:17.552Z,15.99
2017-10-01T03:30:45.419Z,15.99
2017-10-01T03:31:13.370Z,15.99
2017-10-01T03:31:41.440Z,16.04
2017-10-01T03:32:09.394Z,16.02
2017-10-01T03:32:37.540Z,16.02
2017-10-01T03:33:05.661Z,16.02
2017-10-01T03:33:33.659Z,16.04
2017-10-01T03:34:01.761Z,16.13
2017-10-01T03:34:29.822Z,16.02
2017-10-01T03:34:57.842Z,16.02
2017-10-01T03:35:25.787Z,15.95
2017-10-01T03:35:53.857Z,15.95
2017-10-01T03:36:21.715Z,16.07
2017-10-01T03:36:49.769Z,16
2017-10-01T03:37:17.814Z,15.96
2017-10-01T03:37:45.667Z,16.02
2017-10-01T03:38:13.716Z,15.98
2017-10-01T03:38:41.657Z,16.04
2017-10-01T03:39:09.483Z,16.04
2017-10-01T03:39:37.500Z,15.96
2017-10-01T03:40:05.605Z,15.93
2017-10-01T03:40:33.782Z,15.91
2017-10-01T03:41:01.732Z,15.93
2017-10-01T03:41:29.921Z,15.99
2017-10-01T03:41:58.042Z,15.98
2017-10-01T03:42:26.098Z,15.98
2017-10-01T03:42:53.964Z,15.96
2017-10-01T03:43:22.227Z,15.93
2017-10-01T03:43:50.288Z,15.96
2017-10-01T03:44:18.500Z,15.92
2017-10-01T03:44:46.433Z,15.95
2017-10-01T03:45:14.384Z,16
2017-10-01T03:45:42.530Z,16.04
2017-10-01T03:46:10.504Z,16
2017-10-01T03:46:38.681Z,16.04
2017-10-01T03:47:06.726Z,16
2017-10-01T03:47:34.776Z,15.99
2017-10-01T03:48:02.849Z,16
2017-10-01T03:48:30.917Z,16.04
2017-10-01T03:48:58.981Z,15.99
2017-10-01T03:49:27.142Z,15.98
2017-10-01T03:49:55.176Z,16.02
2017-10-01T03:50:23.186Z,16
2017-10-01T03:50:51.228Z,16
2017-10-01T03:51:19.269Z,16.07
2017-10-01T03:51:47.450Z,15.98
2017-10-01T03:52:15.504Z,16.04
2017-10-01T03:52:43.672Z,15.98
2017-10-01T03:53:11.732Z,16
2017-10-01T03:53:40.012Z,16.04
2017-10-01T03:54:07.960Z,15.98
2017-10-01T03:54:35.920Z,16.02
2017-10-01T03:55:03.987Z,16.08
2017-10-01T03:55:32.116Z,16.11
2017-10-01T03:56:00.183Z,16
2017-10-01T03:56:28.340Z,16.1
2017-10-01T03:56:56.489Z,16.04
2017-10-01T03:57:24.632Z,16.02
2017-10-01T03:57:52.772Z,16
2017-10-01T03:58:20.800Z,16
2017-10-01T03:58:48.930Z,16.07
2017-10-01T03:59:16.886Z,16
2017-10-01T03:59:44.631Z,16.06
2017-10-01T04:00:12.508Z,16.02
2017-10-01T04:00:40.466Z,16.11
2017-10-01T04:01:08.521Z,16.08
2017-10-01T04:01:36.559Z,16.08
2017-10-01T04:02:04.431Z,15.93
2017-10-01T04:02:32.460Z,16.1
2017-10-01T04:03:00.501Z,16.08
2017-10-01T04:03:28.457Z,16.11
2017-10-01T04:03:56.767Z,16.07
2017-10-01T04:04:24.824Z,16.08
2017-10-01T04:04:52.999Z,16.06
2017-10-01T04:05:21.071Z,16.07
2017-10-01T04:05:49.089Z,16.13
2017-10-01T04:06:17.008Z,16.07
2017-10-01T04:06:45.051Z,16.14
2017-10-01T04:07:13.106Z,16.07
2017-10-01T04:07:41.192Z,15.96
2017-10-01T04:08:09.353Z,16.02
2017-10-01T04:08:37.579Z,16.02
2017-10-01T04:09:05.615Z,16.04
2017-10-01T04:09:33.638Z,16.02
2017-10-01T04:10:01.671Z,15.95
2017-10-01T04:10:29.628Z,16
2017-10-01T04:10:57.658Z,15.99
2017-10-01T04:11:25.725Z,15.99
2017-10-01T04:11:53.878Z,16.04
2017-10-01T04:12:21.825Z,16.02
2017-10-01T04:12:49.913Z,15.98
2017-10-01T04:13:18.069Z,16.07
2017-10-01T04:13:46.220Z,16.04
2017-10-01T04:14:14.053Z,15.98
2017-10-01T04:14:42.232Z,16.02
2017-10-01T04:15:10.385Z,16
2017-10-01T04:15:38.426Z,15.98
2017-10-01T04:16:06.603Z,16.02
2017-10-01T04:16:34.633Z,16
2017-10-01T04:17:02.670Z,15.96
2017-10-01T04:17:30.686Z,15.96
2017-10-01T04:17:58.627Z,15.98
2017-10-01T04:18:26.760Z,16.02
2017-10-01T04:18:54.830Z,15.99
2017-10-01T04:19:22.666Z,15.93
2017-10-01T04:19:50.617Z,15.96
2017-10-01T04:20:18.673Z,15.93
2017-10-01T04:20:46.799Z,15.96
2017-10-01T04:21:14.841Z,15.96
2017-10-01T04:21:42.500Z,15.95
2017-10-01T04:22:10.598Z,16
2017-10-01T04:22:38.533Z,15.93
2017-10-01T04:23:06.469Z,15.93
2017-10-01T04:23:34.534Z,15.99
2017-10-01T04:24:02.549Z,15.96
2017-10-01T04:24:30.503Z,15.96
2017-10-01T04:24:58.503Z,16.06
2017-10-01T04:25:26.590Z,15.95
2017-10-01T04:25:54.573Z,16.02
2017-10-01T04:26:22.596Z,15.96
2017-10-01T04:26:50.585Z,15.93
2017-10-01T04:27:18.365Z,16
2017-10-01T04:27:46.290Z,15.98
2017-10-01T04:28:14.025Z,16.04
2017-10-01T04:28:42.048Z,15.96
2017-10-01T04:29:10.081Z,15.96
2017-10-01T04:29:38.247Z,15.96
2017-10-01T04:30:06.114Z,16
2017-10-01T04:30:33.959Z,15.95
2017-10-01T04:31:01.981Z,16
2017-10-01T04:31:30.155Z,16
2017-10-01T04:31:58.254Z,16.07
2017-10-01T04:32:26.207Z,15.98
2017-10-01T04:32:54.176Z,16.02
2017-10-01T04:33:22.204Z,16
2017-10-01T04:33:50.218Z,15.96
2017-10-01T04:34:18.404Z,15.96
2017-10-01T04:34:46.471Z,16.02
2017-10-01T04:35:14.650Z,15.99
2017-10-01T04:35:42.727Z,15.99
2017-10-01T04:36:10.775Z,15.96
2017-10-01T04:36:38.722Z,15.99
2017-10-01T04:37:06.658Z,15.99
2017-10-01T04:37:34.702Z,15.96
2017-10-01T04:38:02.649Z,16
2017-10-01T04:38:30.676Z,15.96
2017-10-01T04:38:58.909Z,15.96
2017-10-01T04:39:27.007Z,15.98
2017-10-01T04:39:54.904Z,15.98
2017-10-01T04:40:23.071Z,15.99
2017-10-01T04:40:51.235Z,15.96
2017-10-01T04:41:19.301Z,15.98
2017-10-01T04:41:47.274Z,15.96
2017-10-01T04:42:15.453Z,15.95
2017-10-01T04:42:43.429Z,15.93
2017-10-01T04:43:11.623Z,15.88
2017-10-01T04:43:39.823Z,15.96
2017-10-01T04:44:07.926Z,16.02
2017-10-01T04:44:36.069Z,15.95
2017-10-01T04:45:04.026Z,15.96
2017-10-01T04:45:32.128Z,15.92
2017-10-01T04:46:00.289Z,15.93
2017-10-01T04:46:28.311Z,15.91
2017-10-01T04:46:56.193Z,15.96
2017-10-01T04:47:24.380Z,15.96
2017-10-01T04:47:52.532Z,15.84
2017-10-01T04:48:20.386Z,15.88
2017-10-01T04:48:48.546Z,15.88
2017-10-01T04:49:16.693Z,15.89
2017-10-01T04:49:44.739Z,15.91
2017-10-01T04:50:12.668Z,15.86
2017-10-01T04:50:40.673Z,15.91
2017-10-01T04:51:08.539Z,15.92
2017-10-01T04:51:36.337Z,15.84
2017-10-01T04:52:04.319Z,15.88
2017-10-01T04:52:32.496Z,15.88
2017-10-01T04:53:00.586Z,15.88
2017-10-01T04:53:28.613Z,15.91
2017-10-01T04:53:56.657Z,15.84
2017-10-01T04:54:24.784Z,15.81
2017-10-01T04:54:52.736Z,15.81
2017-10-01T04:55:20.671Z,15.95
2017-10-01T04:55:48.822Z,15.92
2017-10-01T04:56:16.843Z,15.88
2017-10-01T04:56:44.895Z,15.86
2017-10-01T04:57:13.058Z,15.92
2017-10-01T04:57:41.115Z,15.95
2017-10-01T04:58:09.173Z,15.91
2017-10-01T04:58:37.155Z,15.86
2017-10-01T04:59:05.311Z,15.91
2017-10-01T04:59:33.467Z,15.84
2017-10-01T05:00:01.543Z,15.91
2017-10-01T05:00:29.631Z,15.86
2017-10-01T05:00:57.814Z,15.93
2017-10-01T05:01:25.804Z,15.93
2017-10-01T05:01:53.836Z,15.92
2017-10-01T05:02:21.933Z,15.86
2017-10-01T05:02:50.114Z,15.86
2017-10-01T05:03:18.247Z,15.84
2017-10-01T05:03:46.360Z,15.88
2017-10-01T05:04:14.616Z,15.88
2017-10-01T05:04:42.620Z,15.88
2017-10-01T05:05:10.784Z,15.86
2017-10-01T05:05:38.722Z,15.88
2017-10-01T05:06:06.771Z,15.86
2017-10-01T05:06:34.882Z,15.98
2017-10-01T05:07:03.071Z,15.91
2017-10-01T05:07:31.046Z,15.88
2017-10-01T05:07:59.184Z,15.86
2017-10-01T05:08:27.367Z,15.92
2017-10-01T05:08:55.514Z,15.92
2017-10-01T05:09:23.708Z,15.86
2017-10-01T05:09:51.471Z,15.91
2017-10-01T05:10:19.557Z,15.86
2017-10-01T05:10:47.639Z,15.88
2017-10-01T05:11:15.662Z,15.92
2017-10-01T05:11:43.813Z,15.95
2017-10-01T05:12:11.724Z,15.92
2017-10-01T05:12:39.932Z,15.95
2017-10-01T05:13:08.036Z,15.86
2017-10-01T05:13:36.079Z,15.88
2017-10-01T05:14:04.067Z,16.04
2017-10-01T05:14:32.221Z,15.93
2017-10-01T05:15:00.192Z,15.86
2017-10-01T05:15:28.271Z,15.99
2017-10-01T05:15:56.451Z,15.99
2017-10-01T05:16:24.507Z,15.99
2017-10-01T05:16:52.546Z,16.02
2017-10-01T05:17:20.717Z,15.99
2017-10-01T05:17:48.779Z,16.06
2017-10-01T05:18:16.791Z,16.04
2017-10-01T05:18:44.952Z,16.07
2017-10-01T05:19:12.998Z,16.02
2017-10-01T05:19:41.215Z,15.96
2017-10-01T05:20:09.273Z,16.07
2017-10-01T05:20:37.420Z,16.1
2017-10-01T05:21:05.554Z,16.11
2017-10-01T05:21:33.617Z,16.06
2017-10-01T05:22:01.668Z,15.99
2017-10-01T05:22:29.731Z,15.99
2017-10-01T05:22:57.891Z,15.95
2017-10-01T05:23:25.971Z,16.1
2017-10-01T05:23:54.174Z,16
2017-10-01T05:24:22.255Z,16.14
2017-10-01T05:24:50.193Z,16.04
2017-10-01T05:25:18.212Z,16.18
2017-10-01T05:25:46.361Z,16.16
2017-10-01T05:26:14.326Z,16.14
2017-10-01T05:26:42.501Z,16.1
2017-10-01T05:27:10.554Z,16.13
2017-10-01T05:27:38.753Z,16.21
2017-10-01T05:28:06.795Z,16.21
2017-10-01T05:28:34.734Z,16.26
2017-10-01T05:29:02.793Z,16.33
2017-10-01T05:29:31.074Z,16.29
2017-10-01T05:29:59.228Z,16.34
2017-10-01T05:30:27.113Z,16.33
2017-10-01T05:30:55.153Z,16.33
2017-10-01T05:31:23.231Z,16.34
2017-10-01T05:31:51.177Z,16.34
2017-10-01T05:32:19.294Z,16.39
2017-10-01T05:32:47.405Z,16.36
2017-10-01T05:33:15.614Z,16.34
2017-10-01T05:33:43.836Z,16.39
2017-10-01T05:34:11.917Z,16.37
2017-10-01T05:34:40.009Z,16.37
2017-10-01T05:35:08.073Z,16.34
2017-10-01T05:35:36.234Z,16.36
2017-10-01T05:36:04.370Z,16.45
2017-10-01T05:36:32.461Z,16.39
2017-10-01T05:37:00.427Z,16.42
2017-10-01T05:37:28.488Z,16.36
2017-10-01T05:37:56.552Z,16.33
2017-10-01T05:38:24.471Z,16.42
2017-10-01T05:38:52.519Z,16.45
2017-10-01T05:39:20.546Z,16.39
2017-10-01T05:39:48.728Z,16.47
2017-10-01T05:40:16.654Z,16.44
2017-10-01T05:40:44.809Z,16.42
2017-10-01T05:41:12.964Z,16.51
2017-10-01T05:41:41.057Z,16.52
2017-10-01T05:42:09.138Z,16.52
2017-10-01T05:42:37.187Z,16.48
2017-10-01T05:43:05.252Z,16.52
2017-10-01T05:43:33.211Z,16.47
2017-10-01T05:44:01.200Z,16.55
2017-10-01T05:44:29.156Z,16.48
2017-10-01T05:44:57.211Z,16.48
2017-10-01T05:45:25.286Z,16.54
2017-10-01T05:45:53.320Z,16.55
2017-10-01T05:46:21.062Z,16.52
2017-10-01T05:46:49.133Z,16.51
2017-10-01T05:47:17.102Z,16.52
2017-10-01T05:47:45.261Z,16.54
2017-10-01T05:48:13.446Z,16.51
2017-10-01T05:48:41.521Z,16.55
2017-10-01T05:49:09.509Z,16.54
2017-10-01T05:49:37.551Z,16.52
2017-10-01T05:50:05.711Z,16.58
2017-10-01T05:50:33.795Z,16.55
2017-10-01T05:51:01.876Z,16.55
2017-10-01T05:51:29.917Z,16.55
2017-10-01T05:51:58.082Z,16.54
2017-10-01T05:52:26.101Z,16.55
2017-10-01T05:52:53.979Z,16.52
2017-10-01T05:53:22.038Z,16.51
2017-10-01T05:53:50.129Z,16.51
2017-10-01T05:54:18.103Z,16.54
2017-10-01T05:54:46.369Z,16.58
2017-10-01T05:55:14.606Z,16.49
2017-10-01T05:55:42.655Z,16.57
2017-10-01T05:56:10.600Z,16.62
2017-10-01T05:56:38.751Z,16.58
2017-10-01T05:57:06.888Z,16.65
2017-10-01T05:57:35.058Z,16.55
2017-10-01T05:58:03.098Z,16.59
2017-10-01T05:58:31.112Z,16.65
2017-10-01T05:58:59.278Z,16.59
2017-10-01T05:59:27.219Z,16.59
2017-10-01T05:59:55.476Z,16.58
2017-10-01T06:00:23.622Z,16.52
2017-10-01T06:00:51.716Z,16.51
2017-10-01T06:01:19.659Z,16.49
2017-10-01T06:01:47.812Z,16.54
2017-10-01T06:02:15.765Z,16.47
2017-10-01T06:02:43.915Z,16.49
2017-10-01T06:03:11.946Z,16.45
2017-10-01T06:03:40.092Z,16.39